Houston, Illinois
Current Conditions -  °F | °C
As of 2:15 AM on Monday 22 Dec 2014 (Local Time) from KSAR Reporting Station
Overcast Overcast  
Wind Chill: 32°   Ceiling: 7000
Heat Index: 39°   Visibility: 10mi
Dew Point: 31°   Wind: 10mph
Humidity: 72%   Direction: 130°SE
Pressure: 29.91"   Gusts: NA
Location:  38.1133°N, 89.7153°W
Report Text: KSAR 220815Z AUTO 13009KT 10SM SCT055 OVC070 04/M01 A2991 RMK AO2 T00401006
Loading
Personal Weather Stations






























Interactive Weather Map New forecast layout! Learn more

10-Day Weather Forecast

Advertisements
Track Severe Weather on mobile